sensor_id;sensor_type;location;lat;lon;timestamp;temperature;humidity
29731;DHT22;16639;51.488;0.152;2022-12-08T00:01:30;3.30;99.90
29731;DHT22;16639;51.488;0.152;2022-12-08T00:04:00;3.20;99.90
29731;DHT22;16639;51.488;0.152;2022-12-08T00:09:33;3.30;99.90
29731;DHT22;16639;51.488;0.152;2022-12-08T00:12:08;3.30;99.90
29731;DHT22;16639;51.488;0.152;2022-12-08T00:14:38;3.40;99.90
29731;DHT22;16639;51.488;0.152;2022-12-08T00:17:06;3.80;99.90
29731;DHT22;16639;51.488;0.152;2022-12-08T00:19:35;3.40;99.90
29731;DHT22;16639;51.488;0.152;2022-12-08T00:22:03;3.30;99.90
29731;DHT22;16639;51.488;0.152;2022-12-08T00:24:33;3.10;99.90
29731;DHT22;16639;51.488;0.152;2022-12-08T00:27:01;3.00;99.90
29731;DHT22;16639;51.488;0.152;2022-12-08T00:29:29;2.90;99.90
29731;DHT22;16639;51.488;0.152;2022-12-08T00:31:56;2.80;99.90
29731;DHT22;16639;51.488;0.152;2022-12-08T00:34:24;2.80;99.90
29731;DHT22;16639;51.488;0.152;2022-12-08T00:36:51;2.70;99.90
29731;DHT22;16639;51.488;0.152;2022-12-08T00:39:19;2.60;99.90
29731;DHT22;16639;51.488;0.152;2022-12-08T00:41:46;2.60;99.90
29731;DHT22;16639;51.488;0.152;2022-12-08T00:44:32;3.20;99.90
29731;DHT22;16639;51.488;0.152;2022-12-08T00:46:59;2.60;99.90
29731;DHT22;16639;51.488;0.152;2022-12-08T00:49:27;2.50;99.90
29731;DHT22;16639;51.488;0.152;2022-12-08T00:51:54;2.50;99.90
29731;DHT22;16639;51.488;0.152;2022-12-08T00:54:22;2.50;99.90
29731;DHT22;16639;51.488;0.152;2022-12-08T00:56:50;3.00;99.90
29731;DHT22;16639;51.488;0.152;2022-12-08T00:59:18;2.60;99.90
29731;DHT22;16639;51.488;0.152;2022-12-08T01:01:45;2.50;99.90
29731;DHT22;16639;51.488;0.152;2022-12-08T01:04:15;2.40;99.90
29731;DHT22;16639;51.488;0.152;2022-12-08T01:06:43;2.50;99.90
29731;DHT22;16639;51.488;0.152;2022-12-08T01:09:12;2.40;99.90
29731;DHT22;16639;51.488;0.152;2022-12-08T01:11:40;2.40;99.90
29731;DHT22;16639;51.488;0.152;2022-12-08T01:14:11;3.10;99.90
29731;DHT22;16639;51.488;0.152;2022-12-08T01:16:39;2.30;99.90
29731;DHT22;16639;51.488;0.152;2022-12-08T01:19:12;2.40;99.90
29731;DHT22;16639;51.488;0.152;2022-12-08T01:21:40;2.40;99.90
29731;DHT22;16639;51.488;0.152;2022-12-08T01:24:19;2.50;99.90
29731;DHT22;16639;51.488;0.152;2022-12-08T01:26:48;2.40;99.90
29731;DHT22;16639;51.488;0.152;2022-12-08T01:29:17;2.50;99.90
29731;DHT22;16639;51.488;0.152;2022-12-08T01:31:44;2.50;99.90
29731;DHT22;16639;51.488;0.152;2022-12-08T01:34:12;2.50;99.90
29731;DHT22;16639;51.488;0.152;2022-12-08T01:36:40;2.40;99.90
29731;DHT22;16639;51.488;0.152;2022-12-08T01:39:13;2.40;99.90
29731;DHT22;16639;51.488;0.152;2022-12-08T01:41:41;2.40;99.90
29731;DHT22;16639;51.488;0.152;2022-12-08T01:46:39;2.30;99.90
29731;DHT22;16639;51.488;0.152;2022-12-08T01:49:24;2.20;99.90
29731;DHT22;16639;51.488;0.152;2022-12-08T01:51:59;2.30;99.90
29731;DHT22;16639;51.488;0.152;2022-12-08T01:54:37;2.30;99.90
29731;DHT22;16639;51.488;0.152;2022-12-08T01:57:10;2.20;99.90
29731;DHT22;16639;51.488;0.152;2022-12-08T01:59:43;2.20;99.90
29731;DHT22;16639;51.488;0.152;2022-12-08T02:02:12;2.20;99.90
29731;DHT22;16639;51.488;0.152;2022-12-08T02:04:40;2.20;99.90
29731;DHT22;16639;51.488;0.152;2022-12-08T02:07:08;2.20;99.90
29731;DHT22;16639;51.488;0.152;2022-12-08T02:09:36;2.20;99.90
29731;DHT22;16639;51.488;0.152;2022-12-08T02:12:06;2.20;99.90
29731;DHT22;16639;51.488;0.152;2022-12-08T02:14:34;2.10;99.90
29731;DHT22;16639;51.488;0.152;2022-12-08T02:23:13;2.00;99.90
29731;DHT22;16639;51.488;0.152;2022-12-08T02:34:36;2.10;99.90
29731;DHT22;16639;51.488;0.152;2022-12-08T02:37:36;2.30;99.90
29731;DHT22;16639;51.488;0.152;2022-12-08T02:40:12;2.20;99.90
29731;DHT22;16639;51.488;0.152;2022-12-08T02:43:10;2.10;99.90
29731;DHT22;16639;51.488;0.152;2022-12-08T02:45:40;2.10;99.90
29731;DHT22;16639;51.488;0.152;2022-12-08T02:48:10;2.10;99.90
29731;DHT22;16639;51.488;0.152;2022-12-08T02:50:37;2.10;99.90
29731;DHT22;16639;51.488;0.152;2022-12-08T02:53:05;1.70;99.90
29731;DHT22;16639;51.488;0.152;2022-12-08T03:04:02;2.00;99.90
29731;DHT22;16639;51.488;0.152;2022-12-08T03:06:44;2.10;99.90
29731;DHT22;16639;51.488;0.152;2022-12-08T03:09:29;2.10;99.90
29731;DHT22;16639;51.488;0.152;2022-12-08T03:12:41;3.70;99.90
29731;DHT22;16639;51.488;0.152;2022-12-08T03:15:12;2.10;99.90
29731;DHT22;16639;51.488;0.152;2022-12-08T03:17:46;2.10;99.90
29731;DHT22;16639;51.488;0.152;2022-12-08T03:20:18;2.10;99.90
29731;DHT22;16639;51.488;0.152;2022-12-08T03:22:47;2.00;99.90
29731;DHT22;16639;51.488;0.152;2022-12-08T03:25:20;1.90;99.90
29731;DHT22;16639;51.488;0.152;2022-12-08T03:27:49;1.90;99.90
29731;DHT22;16639;51.488;0.152;2022-12-08T03:30:17;1.80;99.90
29731;DHT22;16639;51.488;0.152;2022-12-08T03:33:23;1.80;99.90
29731;DHT22;16639;51.488;0.152;2022-12-08T03:35:52;1.80;99.90
29731;DHT22;16639;51.488;0.152;2022-12-08T03:38:20;1.70;99.90
29731;DHT22;16639;51.488;0.152;2022-12-08T03:40:48;1.70;99.90
29731;DHT22;16639;51.488;0.152;2022-12-08T03:43:35;1.60;99.90
29731;DHT22;16639;51.488;0.152;2022-12-08T03:46:03;1.50;99.90
29731;DHT22;16639;51.488;0.152;2022-12-08T03:48:30;1.60;99.90
29731;DHT22;16639;51.488;0.152;2022-12-08T03:50:58;1.90;99.90
29731;DHT22;16639;51.488;0.152;2022-12-08T03:53:25;1.60;99.90
29731;DHT22;16639;51.488;0.152;2022-12-08T03:55:53;1.60;99.90
29731;DHT22;16639;51.488;0.152;2022-12-08T03:58:20;1.70;99.90
29731;DHT22;16639;51.488;0.152;2022-12-08T04:00:48;1.60;99.90
29731;DHT22;16639;51.488;0.152;2022-12-08T04:03:15;1.60;99.90
29731;DHT22;16639;51.488;0.152;2022-12-08T04:05:43;1.50;99.90
29731;DHT22;16639;51.488;0.152;2022-12-08T04:08:10;1.50;99.90
29731;DHT22;16639;51.488;0.152;2022-12-08T04:10:38;1.40;99.90
29731;DHT22;16639;51.488;0.152;2022-12-08T04:13:05;1.50;99.90
29731;DHT22;16639;51.488;0.152;2022-12-08T04:15:33;1.50;99.90
29731;DHT22;16639;51.488;0.152;2022-12-08T04:18:00;1.50;99.90
29731;DHT22;16639;51.488;0.152;2022-12-08T04:20:27;1.50;99.90
29731;DHT22;16639;51.488;0.152;2022-12-08T04:22:55;1.50;99.90
29731;DHT22;16639;51.488;0.152;2022-12-08T04:25:22;1.60;99.90
29731;DHT22;16639;51.488;0.152;2022-12-08T04:27:50;1.60;99.90
29731;DHT22;16639;51.488;0.152;2022-12-08T04:30:17;1.60;99.90
29731;DHT22;16639;51.488;0.152;2022-12-08T04:32:45;1.60;99.90
29731;DHT22;16639;51.488;0.152;2022-12-08T04:35:13;1.60;99.90
29731;DHT22;16639;51.488;0.152;2022-12-08T04:37:42;1.60;99.90
29731;DHT22;16639;51.488;0.152;2022-12-08T04:40:11;1.60;99.90
29731;DHT22;16639;51.488;0.152;2022-12-08T04:42:41;1.60;99.90
29731;DHT22;16639;51.488;0.152;2022-12-08T04:45:09;1.60;99.90
29731;DHT22;16639;51.488;0.152;2022-12-08T04:47:37;1.60;99.90
29731;DHT22;16639;51.488;0.152;2022-12-08T04:50:10;1.50;99.90
29731;DHT22;16639;51.488;0.152;2022-12-08T04:52:45;1.50;99.90
29731;DHT22;16639;51.488;0.152;2022-12-08T04:55:13;1.50;99.90
29731;DHT22;16639;51.488;0.152;2022-12-08T04:57:40;1.40;99.90
29731;DHT22;16639;51.488;0.152;2022-12-08T05:00:08;1.50;99.90
29731;DHT22;16639;51.488;0.152;2022-12-08T05:02:36;1.50;99.90
29731;DHT22;16639;51.488;0.152;2022-12-08T05:05:04;1.50;99.90
29731;DHT22;16639;51.488;0.152;2022-12-08T05:07:32;1.50;99.90
29731;DHT22;16639;51.488;0.152;2022-12-08T05:10:00;1.50;99.90
29731;DHT22;16639;51.488;0.152;2022-12-08T05:12:27;1.70;99.90
29731;DHT22;16639;51.488;0.152;2022-12-08T05:14:54;1.70;99.90
29731;DHT22;16639;51.488;0.152;2022-12-08T05:17:22;1.70;99.90
29731;DHT22;16639;51.488;0.152;2022-12-08T05:19:49;1.70;99.90
29731;DHT22;16639;51.488;0.152;2022-12-08T05:22:16;1.80;99.90
29731;DHT22;16639;51.488;0.152;2022-12-08T05:24:44;1.60;99.90
29731;DHT22;16639;51.488;0.152;2022-12-08T05:27:14;2.00;99.90
29731;DHT22;16639;51.488;0.152;2022-12-08T05:29:41;1.70;99.90
29731;DHT22;16639;51.488;0.152;2022-12-08T05:32:09;1.60;99.90
29731;DHT22;16639;51.488;0.152;2022-12-08T05:34:36;1.60;99.90
29731;DHT22;16639;51.488;0.152;2022-12-08T05:37:03;1.50;99.90
29731;DHT22;16639;51.488;0.152;2022-12-08T05:39:31;1.50;99.90
29731;DHT22;16639;51.488;0.152;2022-12-08T05:41:58;1.60;99.90
29731;DHT22;16639;51.488;0.152;2022-12-08T05:44:26;1.50;99.90
29731;DHT22;16639;51.488;0.152;2022-12-08T05:46:53;1.50;99.90
29731;DHT22;16639;51.488;0.152;2022-12-08T05:49:20;2.60;99.90
29731;DHT22;16639;51.488;0.152;2022-12-08T05:51:47;1.40;99.90
29731;DHT22;16639;51.488;0.152;2022-12-08T05:54:15;1.30;99.90
29731;DHT22;16639;51.488;0.152;2022-12-08T05:56:42;1.40;99.90
29731;DHT22;16639;51.488;0.152;2022-12-08T05:59:10;1.20;99.90
29731;DHT22;16639;51.488;0.152;2022-12-08T06:01:37;1.20;99.90
29731;DHT22;16639;51.488;0.152;2022-12-08T06:04:05;1.30;99.90
29731;DHT22;16639;51.488;0.152;2022-12-08T06:06:35;1.30;99.90
29731;DHT22;16639;51.488;0.152;2022-12-08T06:09:05;1.30;99.90
29731;DHT22;16639;51.488;0.152;2022-12-08T06:11:35;1.40;99.90
29731;DHT22;16639;51.488;0.152;2022-12-08T06:14:03;1.30;99.90
29731;DHT22;16639;51.488;0.152;2022-12-08T06:16:30;2.40;99.90
29731;DHT22;16639;51.488;0.152;2022-12-08T06:18:58;1.50;99.90
29731;DHT22;16639;51.488;0.152;2022-12-08T06:21:25;1.00;99.90
29731;DHT22;16639;51.488;0.152;2022-12-08T06:23:53;1.50;99.90
29731;DHT22;16639;51.488;0.152;2022-12-08T06:26:21;1.50;99.90
29731;DHT22;16639;51.488;0.152;2022-12-08T06:28:52;1.50;99.90
29731;DHT22;16639;51.488;0.152;2022-12-08T06:31:24;1.60;99.90
29731;DHT22;16639;51.488;0.152;2022-12-08T06:33:53;2.20;99.90
29731;DHT22;16639;51.488;0.152;2022-12-08T06:36:23;1.60;99.90
29731;DHT22;16639;51.488;0.152;2022-12-08T06:38:51;1.70;99.90
29731;DHT22;16639;51.488;0.152;2022-12-08T06:41:18;1.60;99.90
29731;DHT22;16639;51.488;0.152;2022-12-08T06:43:46;1.60;99.90
29731;DHT22;16639;51.488;0.152;2022-12-08T06:46:16;1.60;99.90
29731;DHT22;16639;51.488;0.152;2022-12-08T06:48:44;1.60;99.90
29731;DHT22;16639;51.488;0.152;2022-12-08T06:51:14;1.50;99.90
29731;DHT22;16639;51.488;0.152;2022-12-08T06:53:44;1.50;99.90
29731;DHT22;16639;51.488;0.152;2022-12-08T06:56:14;1.60;99.90
29731;DHT22;16639;51.488;0.152;2022-12-08T06:58:42;1.40;99.90
29731;DHT22;16639;51.488;0.152;2022-12-08T07:01:18;1.40;99.90
29731;DHT22;16639;51.488;0.152;2022-12-08T07:03:45;1.20;99.90
29731;DHT22;16639;51.488;0.152;2022-12-08T07:06:15;1.50;99.90
29731;DHT22;16639;51.488;0.152;2022-12-08T07:08:44;1.40;99.90
29731;DHT22;16639;51.488;0.152;2022-12-08T07:11:11;1.40;99.90
29731;DHT22;16639;51.488;0.152;2022-12-08T07:13:47;0.80;99.90
29731;DHT22;16639;51.488;0.152;2022-12-08T07:16:14;1.30;99.90
29731;DHT22;16639;51.488;0.152;2022-12-08T07:18:41;1.30;99.90
29731;DHT22;16639;51.488;0.152;2022-12-08T07:21:11;1.30;99.90
29731;DHT22;16639;51.488;0.152;2022-12-08T07:23:40;1.20;99.90
29731;DHT22;16639;51.488;0.152;2022-12-08T07:26:10;1.20;99.90
29731;DHT22;16639;51.488;0.152;2022-12-08T07:28:39;1.30;99.90
29731;DHT22;16639;51.488;0.152;2022-12-08T07:31:24;1.70;99.90
29731;DHT22;16639;51.488;0.152;2022-12-08T07:33:52;1.30;99.90
29731;DHT22;16639;51.488;0.152;2022-12-08T07:36:20;4.30;99.90
29731;DHT22;16639;51.488;0.152;2022-12-08T07:38:48;1.30;99.90
29731;DHT22;16639;51.488;0.152;2022-12-08T07:41:21;1.50;99.90
29731;DHT22;16639;51.488;0.152;2022-12-08T07:43:50;1.40;99.90
29731;DHT22;16639;51.488;0.152;2022-12-08T07:46:20;1.50;99.90
29731;DHT22;16639;51.488;0.152;2022-12-08T07:48:48;1.50;99.90
29731;DHT22;16639;51.488;0.152;2022-12-08T07:51:16;1.60;99.90
29731;DHT22;16639;51.488;0.152;2022-12-08T07:53:45;1.70;99.90
29731;DHT22;16639;51.488;0.152;2022-12-08T07:56:20;1.80;99.90
29731;DHT22;16639;51.488;0.152;2022-12-08T07:58:47;1.70;99.90
29731;DHT22;16639;51.488;0.152;2022-12-08T08:03:50;1.70;99.90
29731;DHT22;16639;51.488;0.152;2022-12-08T08:06:18;1.70;99.90
29731;DHT22;16639;51.488;0.152;2022-12-08T08:08:45;1.70;99.90
29731;DHT22;16639;51.488;0.152;2022-12-08T08:11:13;1.70;99.90
29731;DHT22;16639;51.488;0.152;2022-12-08T08:13:48;1.70;99.90
29731;DHT22;16639;51.488;0.152;2022-12-08T08:16:16;3.00;99.90
29731;DHT22;16639;51.488;0.152;2022-12-08T08:18:47;1.90;99.90
29731;DHT22;16639;51.488;0.152;2022-12-08T08:21:15;1.90;99.90
29731;DHT22;16639;51.488;0.152;2022-12-08T08:24:03;1.90;99.90
29731;DHT22;16639;51.488;0.152;2022-12-08T08:26:31;1.90;99.90
29731;DHT22;16639;51.488;0.152;2022-12-08T08:28:58;1.90;99.90
29731;DHT22;16639;51.488;0.152;2022-12-08T08:31:25;1.80;99.90
29731;DHT22;16639;51.488;0.152;2022-12-08T08:33:54;1.90;99.90
29731;DHT22;16639;51.488;0.152;2022-12-08T08:36:21;1.90;99.90
29731;DHT22;16639;51.488;0.152;2022-12-08T08:38:49;1.80;99.90
29731;DHT22;16639;51.488;0.152;2022-12-08T08:41:17;2.00;99.90
29731;DHT22;16639;51.488;0.152;2022-12-08T08:43:45;2.90;99.90
29731;DHT22;16639;51.488;0.152;2022-12-08T08:46:12;2.00;99.90
29731;DHT22;16639;51.488;0.152;2022-12-08T08:48:40;2.00;99.90
29731;DHT22;16639;51.488;0.152;2022-12-08T08:51:12;1.90;99.90
29731;DHT22;16639;51.488;0.152;2022-12-08T08:53:40;2.00;99.90
29731;DHT22;16639;51.488;0.152;2022-12-08T08:56:12;2.00;99.90
29731;DHT22;16639;51.488;0.152;2022-12-08T08:58:41;2.00;99.90
29731;DHT22;16639;51.488;0.152;2022-12-08T09:01:08;1.40;99.90
29731;DHT22;16639;51.488;0.152;2022-12-08T09:03:40;2.00;99.90
29731;DHT22;16639;51.488;0.152;2022-12-08T09:06:07;2.00;99.90
29731;DHT22;16639;51.488;0.152;2022-12-08T09:08:35;2.10;99.90
29731;DHT22;16639;51.488;0.152;2022-12-08T09:11:02;2.20;99.90
29731;DHT22;16639;51.488;0.152;2022-12-08T09:13:30;2.10;99.90
29731;DHT22;16639;51.488;0.152;2022-12-08T09:16:05;2.00;99.90
29731;DHT22;16639;51.488;0.152;2022-12-08T09:18:33;2.10;99.90
29731;DHT22;16639;51.488;0.152;2022-12-08T09:21:10;2.00;99.90
29731;DHT22;16639;51.488;0.152;2022-12-08T09:23:39;2.00;99.90
29731;DHT22;16639;51.488;0.152;2022-12-08T09:26:06;2.00;99.90
29731;DHT22;16639;51.488;0.152;2022-12-08T09:28:34;2.00;99.90
29731;DHT22;16639;51.488;0.152;2022-12-08T09:31:02;1.90;99.90
29731;DHT22;16639;51.488;0.152;2022-12-08T09:33:29;2.00;99.90
29731;DHT22;16639;51.488;0.152;2022-12-08T09:36:01;2.00;99.90
29731;DHT22;16639;51.488;0.152;2022-12-08T09:38:30;1.90;99.90
29731;DHT22;16639;51.488;0.152;2022-12-08T09:40:58;2.00;99.90
29731;DHT22;16639;51.488;0.152;2022-12-08T09:46:15;2.10;99.90
29731;DHT22;16639;51.488;0.152;2022-12-08T09:48:51;2.10;99.90
29731;DHT22;16639;51.488;0.152;2022-12-08T09:51:23;2.20;99.90
29731;DHT22;16639;51.488;0.152;2022-12-08T09:53:57;2.20;99.90
29731;DHT22;16639;51.488;0.152;2022-12-08T09:56:29;2.20;99.90
29731;DHT22;16639;51.488;0.152;2022-12-08T09:59:19;2.30;99.90
29731;DHT22;16639;51.488;0.152;2022-12-08T10:01:48;2.30;99.90
29731;DHT22;16639;51.488;0.152;2022-12-08T10:04:26;2.40;99.90
29731;DHT22;16639;51.488;0.152;2022-12-08T10:07:20;2.40;99.90
29731;DHT22;16639;51.488;0.152;2022-12-08T10:10:26;2.40;99.90
29731;DHT22;16639;51.488;0.152;2022-12-08T10:18:34;2.50;99.90
29731;DHT22;16639;51.488;0.152;2022-12-08T10:21:15;2.60;99.90
29731;DHT22;16639;51.488;0.152;2022-12-08T10:23:47;2.60;99.90
29731;DHT22;16639;51.488;0.152;2022-12-08T10:26:18;2.60;99.90
29731;DHT22;16639;51.488;0.152;2022-12-08T10:28:46;2.60;99.90
29731;DHT22;16639;51.488;0.152;2022-12-08T10:31:16;2.70;99.90
29731;DHT22;16639;51.488;0.152;2022-12-08T10:33:46;2.70;99.90
29731;DHT22;16639;51.488;0.152;2022-12-08T10:36:14;2.70;99.90
29731;DHT22;16639;51.488;0.152;2022-12-08T10:38:41;2.70;99.90
29731;DHT22;16639;51.488;0.152;2022-12-08T10:43:54;2.80;99.90
29731;DHT22;16639;51.488;0.152;2022-12-08T10:46:27;2.70;99.90
29731;DHT22;16639;51.488;0.152;2022-12-08T10:51:38;2.80;99.90
29731;DHT22;16639;51.488;0.152;2022-12-08T10:54:34;3.50;99.90
29731;DHT22;16639;51.488;0.152;2022-12-08T10:57:05;2.80;99.90
29731;DHT22;16639;51.488;0.152;2022-12-08T10:59:32;2.90;99.90
29731;DHT22;16639;51.488;0.152;2022-12-08T11:02:00;3.00;99.90
29731;DHT22;16639;51.488;0.152;2022-12-08T11:04:34;2.90;99.90
29731;DHT22;16639;51.488;0.152;2022-12-08T11:07:05;4.00;99.90
29731;DHT22;16639;51.488;0.152;2022-12-08T11:09:41;2.90;99.90
29731;DHT22;16639;51.488;0.152;2022-12-08T11:12:16;2.10;99.90
29731;DHT22;16639;51.488;0.152;2022-12-08T11:14:50;3.70;99.90
29731;DHT22;16639;51.488;0.152;2022-12-08T11:27:39;2.60;99.90
29731;DHT22;16639;51.488;0.152;2022-12-08T11:30:19;3.10;99.90
29731;DHT22;16639;51.488;0.152;2022-12-08T11:32:55;3.10;99.90
29731;DHT22;16639;51.488;0.152;2022-12-08T11:35:30;3.20;99.90
29731;DHT22;16639;51.488;0.152;2022-12-08T11:38:23;3.10;99.90
29731;DHT22;16639;51.488;0.152;2022-12-08T11:41:06;3.20;99.90
29731;DHT22;16639;51.488;0.152;2022-12-08T11:46:27;3.30;99.90
29731;DHT22;16639;51.488;0.152;2022-12-08T11:49:02;3.30;99.90
29731;DHT22;16639;51.488;0.152;2022-12-08T11:54:34;3.30;99.90
29731;DHT22;16639;51.488;0.152;2022-12-08T11:57:11;3.30;99.90
29731;DHT22;16639;51.488;0.152;2022-12-08T11:59:44;3.20;99.90
29731;DHT22;16639;51.488;0.152;2022-12-08T12:02:20;3.30;99.90
29731;DHT22;16639;51.488;0.152;2022-12-08T12:04:54;3.30;99.90
29731;DHT22;16639;51.488;0.152;2022-12-08T12:18:26;3.40;99.90
29731;DHT22;16639;51.488;0.152;2022-12-08T12:23:39;3.70;99.90
29731;DHT22;16639;51.488;0.152;2022-12-08T12:26:15;3.50;99.90
29731;DHT22;16639;51.488;0.152;2022-12-08T12:29:12;3.80;99.90
29731;DHT22;16639;51.488;0.152;2022-12-08T12:31:47;3.70;99.90
29731;DHT22;16639;51.488;0.152;2022-12-08T12:36:49;3.60;99.90
29731;DHT22;16639;51.488;0.152;2022-12-08T12:39:33;3.60;99.90
29731;DHT22;16639;51.488;0.152;2022-12-08T12:42:43;3.60;99.90
29731;DHT22;16639;51.488;0.152;2022-12-08T12:47:52;3.70;99.90
29731;DHT22;16639;51.488;0.152;2022-12-08T13:00:46;3.70;99.90
29731;DHT22;16639;51.488;0.152;2022-12-08T13:03:15;3.70;99.90
29731;DHT22;16639;51.488;0.152;2022-12-08T13:05:50;3.70;99.90
29731;DHT22;16639;51.488;0.152;2022-12-08T13:08:25;3.80;99.90
29731;DHT22;16639;51.488;0.152;2022-12-08T13:11:03;3.70;99.90
29731;DHT22;16639;51.488;0.152;2022-12-08T13:13:32;3.70;99.90
29731;DHT22;16639;51.488;0.152;2022-12-08T13:16:04;3.80;99.90
29731;DHT22;16639;51.488;0.152;2022-12-08T13:18:50;3.80;99.90
29731;DHT22;16639;51.488;0.152;2022-12-08T13:21:20;3.80;99.90
29731;DHT22;16639;51.488;0.152;2022-12-08T13:26:49;3.80;99.90
29731;DHT22;16639;51.488;0.152;2022-12-08T13:29:20;3.90;99.90
29731;DHT22;16639;51.488;0.152;2022-12-08T13:32:02;3.90;99.90
29731;DHT22;16639;51.488;0.152;2022-12-08T13:34:45;5.30;99.90
29731;DHT22;16639;51.488;0.152;2022-12-08T13:39:56;3.90;99.90
29731;DHT22;16639;51.488;0.152;2022-12-08T13:42:49;3.90;99.90
29731;DHT22;16639;51.488;0.152;2022-12-08T13:45:24;4.00;99.90
29731;DHT22;16639;51.488;0.152;2022-12-08T13:48:30;4.00;99.90
29731;DHT22;16639;51.488;0.152;2022-12-08T13:51:26;4.10;99.90
29731;DHT22;16639;51.488;0.152;2022-12-08T13:54:26;4.10;99.90
29731;DHT22;16639;51.488;0.152;2022-12-08T13:57:33;4.10;99.90
29731;DHT22;16639;51.488;0.152;2022-12-08T14:00:13;4.10;99.90
29731;DHT22;16639;51.488;0.152;2022-12-08T14:02:58;4.00;99.90
29731;DHT22;16639;51.488;0.152;2022-12-08T14:05:38;4.10;99.90
29731;DHT22;16639;51.488;0.152;2022-12-08T14:08:31;4.10;99.90
29731;DHT22;16639;51.488;0.152;2022-12-08T14:11:34;4.10;99.90
29731;DHT22;16639;51.488;0.152;2022-12-08T14:14:10;4.10;99.90
29731;DHT22;16639;51.488;0.152;2022-12-08T14:16:56;4.10;99.90
29731;DHT22;16639;51.488;0.152;2022-12-08T14:19:27;4.10;99.90
29731;DHT22;16639;51.488;0.152;2022-12-08T14:22:17;4.10;99.90
29731;DHT22;16639;51.488;0.152;2022-12-08T14:24:46;4.10;99.90
29731;DHT22;16639;51.488;0.152;2022-12-08T14:27:22;5.00;99.90
29731;DHT22;16639;51.488;0.152;2022-12-08T14:29:57;4.10;99.90
29731;DHT22;16639;51.488;0.152;2022-12-08T14:32:56;3.90;99.90
29731;DHT22;16639;51.488;0.152;2022-12-08T14:35:31;4.50;99.90
29731;DHT22;16639;51.488;0.152;2022-12-08T14:40:39;4.20;99.90
29731;DHT22;16639;51.488;0.152;2022-12-08T14:48:38;4.20;99.90
29731;DHT22;16639;51.488;0.152;2022-12-08T14:53:45;4.20;99.90
29731;DHT22;16639;51.488;0.152;2022-12-08T14:56:25;4.30;99.90
29731;DHT22;16639;51.488;0.152;2022-12-08T15:01:35;4.30;99.90
29731;DHT22;16639;51.488;0.152;2022-12-08T15:04:18;4.20;99.90
29731;DHT22;16639;51.488;0.152;2022-12-08T15:07:52;4.30;99.90
29731;DHT22;16639;51.488;0.152;2022-12-08T15:09:49;5.70;99.90
29731;DHT22;16639;51.488;0.152;2022-12-08T15:12:32;4.30;99.90
29731;DHT22;16639;51.488;0.152;2022-12-08T15:15:15;4.30;99.90
29731;DHT22;16639;51.488;0.152;2022-12-08T15:23:01;4.00;99.90
29731;DHT22;16639;51.488;0.152;2022-12-08T15:25:30;4.20;99.90
29731;DHT22;16639;51.488;0.152;2022-12-08T15:27:57;3.80;99.90
29731;DHT22;16639;51.488;0.152;2022-12-08T15:30:25;3.80;99.90
29731;DHT22;16639;51.488;0.152;2022-12-08T15:32:52;3.70;99.90
29731;DHT22;16639;51.488;0.152;2022-12-08T15:35:22;3.70;99.90
29731;DHT22;16639;51.488;0.152;2022-12-08T15:37:49;3.80;99.90
29731;DHT22;16639;51.488;0.152;2022-12-08T15:40:20;4.50;99.90
29731;DHT22;16639;51.488;0.152;2022-12-08T15:42:49;3.70;99.90
29731;DHT22;16639;51.488;0.152;2022-12-08T15:45:16;3.90;99.90
29731;DHT22;16639;51.488;0.152;2022-12-08T15:47:44;3.80;99.90
29731;DHT22;16639;51.488;0.152;2022-12-08T15:50:17;3.80;99.90
29731;DHT22;16639;51.488;0.152;2022-12-08T15:52:45;3.80;99.90
29731;DHT22;16639;51.488;0.152;2022-12-08T15:55:14;4.30;99.90
29731;DHT22;16639;51.488;0.152;2022-12-08T15:57:44;3.90;99.90
29731;DHT22;16639;51.488;0.152;2022-12-08T16:00:34;3.80;99.90
29731;DHT22;16639;51.488;0.152;2022-12-08T16:03:25;3.80;99.90
29731;DHT22;16639;51.488;0.152;2022-12-08T16:06:18;3.80;99.90
29731;DHT22;16639;51.488;0.152;2022-12-08T16:11:49;3.50;99.90
29731;DHT22;16639;51.488;0.152;2022-12-08T16:14:37;3.70;99.90
29731;DHT22;16639;51.488;0.152;2022-12-08T16:17:25;3.60;99.90
29731;DHT22;16639;51.488;0.152;2022-12-08T16:19:53;3.60;99.90
29731;DHT22;16639;51.488;0.152;2022-12-08T16:22:23;3.30;99.90
29731;DHT22;16639;51.488;0.152;2022-12-08T16:25:11;3.60;99.90
29731;DHT22;16639;51.488;0.152;2022-12-08T16:27:51;3.60;99.90
29731;DHT22;16639;51.488;0.152;2022-12-08T16:30:38;3.60;99.90
29731;DHT22;16639;51.488;0.152;2022-12-08T16:33:06;3.60;99.90
29731;DHT22;16639;51.488;0.152;2022-12-08T16:35:33;3.50;99.90
29731;DHT22;16639;51.488;0.152;2022-12-08T16:38:01;3.50;99.90
29731;DHT22;16639;51.488;0.152;2022-12-08T16:40:28;3.50;99.90
29731;DHT22;16639;51.488;0.152;2022-12-08T16:42:56;3.50;99.90
29731;DHT22;16639;51.488;0.152;2022-12-08T16:45:26;3.50;99.90
29731;DHT22;16639;51.488;0.152;2022-12-08T16:47:59;3.50;99.90
29731;DHT22;16639;51.488;0.152;2022-12-08T16:50:30;3.50;99.90
29731;DHT22;16639;51.488;0.152;2022-12-08T16:53:04;3.50;99.90
29731;DHT22;16639;51.488;0.152;2022-12-08T16:55:33;3.50;99.90
29731;DHT22;16639;51.488;0.152;2022-12-08T16:58:01;3.20;99.90
29731;DHT22;16639;51.488;0.152;2022-12-08T17:00:32;3.50;99.90
29731;DHT22;16639;51.488;0.152;2022-12-08T17:03:04;3.40;99.90
29731;DHT22;16639;51.488;0.152;2022-12-08T17:05:32;3.40;99.90
29731;DHT22;16639;51.488;0.152;2022-12-08T17:07:59;3.40;99.90
29731;DHT22;16639;51.488;0.152;2022-12-08T17:10:29;3.40;99.90
29731;DHT22;16639;51.488;0.152;2022-12-08T17:12:56;3.40;99.90
29731;DHT22;16639;51.488;0.152;2022-12-08T17:15:24;3.40;99.90
29731;DHT22;16639;51.488;0.152;2022-12-08T17:17:52;4.60;99.90
29731;DHT22;16639;51.488;0.152;2022-12-08T17:20:22;3.30;99.90
29731;DHT22;16639;51.488;0.152;2022-12-08T17:22:53;3.20;99.90
29731;DHT22;16639;51.488;0.152;2022-12-08T17:25:21;3.20;99.90
29731;DHT22;16639;51.488;0.152;2022-12-08T17:27:48;3.20;99.90
29731;DHT22;16639;51.488;0.152;2022-12-08T17:30:16;3.20;99.90
29731;DHT22;16639;51.488;0.152;2022-12-08T17:32:45;3.20;99.90
29731;DHT22;16639;51.488;0.152;2022-12-08T17:35:13;2.80;99.90
29731;DHT22;16639;51.488;0.152;2022-12-08T17:37:42;3.10;99.90
29731;DHT22;16639;51.488;0.152;2022-12-08T17:40:10;3.10;99.90
29731;DHT22;16639;51.488;0.152;2022-12-08T17:42:38;3.10;99.90
29731;DHT22;16639;51.488;0.152;2022-12-08T17:45:06;3.00;99.90
29731;DHT22;16639;51.488;0.152;2022-12-08T17:47:34;2.70;99.90
29731;DHT22;16639;51.488;0.152;2022-12-08T17:50:03;2.60;99.90
29731;DHT22;16639;51.488;0.152;2022-12-08T17:52:31;2.50;99.90
29731;DHT22;16639;51.488;0.152;2022-12-08T17:54:58;2.40;99.90
29731;DHT22;16639;51.488;0.152;2022-12-08T17:57:25;2.20;99.90
29731;DHT22;16639;51.488;0.152;2022-12-08T17:59:53;2.20;99.90
29731;DHT22;16639;51.488;0.152;2022-12-08T18:02:20;2.20;99.90
29731;DHT22;16639;51.488;0.152;2022-12-08T18:04:47;2.10;99.90
29731;DHT22;16639;51.488;0.152;2022-12-08T18:07:15;2.20;99.90
29731;DHT22;16639;51.488;0.152;2022-12-08T18:09:42;2.10;99.90
29731;DHT22;16639;51.488;0.152;2022-12-08T18:12:10;2.00;99.90
29731;DHT22;16639;51.488;0.152;2022-12-08T18:14:37;2.00;99.90